Time;durP1;ratioP1;P1;durP2;ratioP2;P2;SDS_P1;SDS_P2;PMS_P1;PMS_P2;Temp;Humidity;BMP_temperature;BMP_pressure;BME280_temperature;BME280_humidity;BME280_pressure;Samples;Min_cycle;Max_cycle;Signal;HPM_P1;HPM_P2
2023/07/29 00:01:41;;;;;;;3.53;3.22;;;15.80;99.90;;;;;;5278293;28;20494;-67
2023/07/29 00:04:12;;;;;;;5.05;3.60;;;15.80;99.90;;;;;;5273744;28;20030;-68
2023/07/29 00:06:43;;;;;;;3.67;3.38;;;15.90;99.90;;;;;;5288377;27;20020;-67
2023/07/29 00:09:13;;;;;;;4.25;3.20;;;15.90;99.90;;;;;;5268319;28;20039;-67
2023/07/29 00:11:44;;;;;;;3.13;2.83;;;16.00;99.90;;;;;;5268181;28;20395;-67
2023/07/29 00:14:24;;;;;;;4.32;3.05;;;16.00;99.90;;;;;;5266873;28;20031;-67
2023/07/29 00:16:55;;;;;;;3.42;3.15;;;15.90;99.90;;;;;;5269470;28;20024;-67
2023/07/29 00:19:28;;;;;;;3.55;3.30;;;16.00;99.90;;;;;;5269277;28;20024;-67
2023/07/29 00:22:02;;;;;;;31.17;4.18;;;15.80;99.90;;;;;;5269264;28;20023;-67
2023/07/29 00:24:45;;;;;;;3.20;2.80;;;15.60;99.90;;;;;;5269081;28;20115;-69
2023/07/29 00:27:19;;;;;;;4.13;3.45;;;15.90;99.90;;;;;;5269510;28;20103;-67
2023/07/29 00:29:53;;;;;;;3.80;3.50;;;15.70;99.90;;;;;;5269331;28;20047;-67
2023/07/29 00:32:23;;;;;;;26.15;4.18;;;15.60;99.90;;;;;;5268954;28;20024;-67
2023/07/29 00:34:54;;;;;;;2.70;2.50;;;15.40;99.90;;;;;;5269051;28;20549;-67
2023/07/29 00:37:25;;;;;;;3.35;3.15;;;15.30;99.90;;;;;;5269028;28;20020;-67
2023/07/29 00:39:57;;;;;;;3.67;3.20;;;15.50;99.90;;;;;;5268900;28;20089;-67
2023/07/29 00:42:34;;;;;;;12.73;4.00;;;15.50;99.90;;;;;;5268959;28;20043;-67
2023/07/29 00:45:15;;;;;;;3.10;2.90;;;15.70;99.90;;;;;;5268908;28;20035;-67
2023/07/29 00:47:46;;;;;;;3.30;3.10;;;15.50;99.90;;;;;;5268853;28;20063;-68
2023/07/29 00:50:18;;;;;;;3.50;3.20;;;15.50;99.90;;;;;;5268658;28;20352;-67
2023/07/29 00:52:49;;;;;;;19.15;3.53;;;15.50;99.90;;;;;;5268670;28;20020;-68
2023/07/29 00:55:20;;;;;;;3.08;2.83;;;15.30;99.90;;;;;;5267931;28;20410;-67
2023/07/29 00:57:54;;;;;;;3.67;3.38;;;15.40;99.90;;;;;;5267877;28;20030;-67
2023/07/29 01:00:25;;;;;;;3.92;3.50;;;15.60;99.90;;;;;;5266905;28;20024;-67
2023/07/29 01:02:57;;;;;;;3.70;3.38;;;15.40;99.90;;;;;;5267186;28;20499;-68
2023/07/29 01:05:36;;;;;;;3.53;3.22;;;15.50;99.90;;;;;;5267705;28;20036;-68
2023/07/29 01:08:39;;;;;;;16.58;3.65;;;15.40;99.90;;;;;;5267891;28;20089;-67
2023/07/29 01:11:16;;;;;;;3.45;3.15;;;15.50;99.90;;;;;;5265349;28;20036;-69
2023/07/29 01:13:54;;;;;;;18.90;4.78;;;15.30;99.90;;;;;;5267933;28;20028;-68
2023/07/29 01:16:33;;;;;;;3.45;3.22;;;15.30;99.90;;;;;;5268272;28;20115;-67
2023/07/29 01:19:09;;;;;;;144.15;19.52;;;15.20;99.90;;;;;;5247271;28;20059;-67
2023/07/29 01:21:41;;;;;;;3.30;3.10;;;15.20;99.90;;;;;;5264375;28;20034;-67
2023/07/29 01:24:12;;;;;;;3.50;3.05;;;15.40;99.90;;;;;;5268148;28;20028;-67
2023/07/29 01:26:42;;;;;;;3.80;3.42;;;15.40;99.90;;;;;;5268058;28;20024;-67
2023/07/29 01:29:13;;;;;;;58.92;14.32;;;15.10;99.90;;;;;;5267770;28;20112;-66
2023/07/29 01:31:47;;;;;;;5.13;4.75;;;15.00;99.90;;;;;;5267869;28;20035;-68
2023/07/29 01:34:29;;;;;;;4.32;4.10;;;15.10;99.90;;;;;;5275714;28;20435;-68
2023/07/29 01:37:02;;;;;;;4.03;3.72;;;15.10;99.90;;;;;;5272337;28;20036;-67
2023/07/29 01:39:36;;;;;;;3.67;3.38;;;15.10;99.90;;;;;;5267689;28;20493;-67
2023/07/29 01:42:08;;;;;;;4.35;4.05;;;15.10;99.90;;;;;;5267711;28;20089;-67
2023/07/29 01:44:39;;;;;;;3.75;3.45;;;15.10;99.90;;;;;;5267777;28;20023;-67
2023/07/29 01:47:10;;;;;;;4.10;3.80;;;14.90;99.90;;;;;;5267822;28;20032;-67
2023/07/29 01:49:41;;;;;;;5.32;4.93;;;15.00;99.90;;;;;;5267269;28;20008;-67
2023/07/29 01:52:12;;;;;;;5.53;5.13;;;15.10;99.90;;;;;;5267376;28;20019;-68
2023/07/29 01:54:43;;;;;;;5.32;4.93;;;15.00;99.90;;;;;;5266416;28;20028;-67
2023/07/29 01:57:14;;;;;;;5.88;5.47;;;14.70;99.90;;;;;;5266451;28;20497;-68
2023/07/29 01:59:45;;;;;;;4.60;4.30;;;14.90;99.90;;;;;;5265912;28;20059;-66
2023/07/29 02:02:15;;;;;;;5.28;4.80;;;14.90;99.90;;;;;;5265833;28;20546;-65
2023/07/29 02:04:51;;;;;;;4.90;4.60;;;15.00;99.90;;;;;;5266211;28;20405;-67
2023/07/29 02:07:22;;;;;;;4.75;4.45;;;14.90;99.90;;;;;;5266165;28;20577;-68
2023/07/29 02:09:53;;;;;;;4.20;3.90;;;14.90;99.90;;;;;;5267341;28;20028;-67
2023/07/29 02:12:24;;;;;;;4.47;4.00;;;14.90;99.90;;;;;;5267420;28;20117;-68
2023/07/29 02:14:54;;;;;;;4.25;3.85;;;14.90;99.90;;;;;;5267478;28;20024;-67
2023/07/29 02:17:26;;;;;;;4.47;4.13;;;14.70;99.90;;;;;;5267451;28;20394;-67
2023/07/29 02:19:56;;;;;;;3.65;3.42;;;14.90;99.90;;;;;;5267432;28;20099;-68
2023/07/29 02:22:30;;;;;;;4.47;4.18;;;14.80;99.90;;;;;;5267218;28;20531;-67
2023/07/29 02:25:07;;;;;;;4.05;3.75;;;14.70;99.90;;;;;;5270409;28;20490;-68
2023/07/29 02:27:41;;;;;;;4.30;4.00;;;14.70;99.90;;;;;;5271696;28;20467;-67
2023/07/29 02:30:22;;;;;;;4.53;4.22;;;14.90;99.90;;;;;;5271596;28;20107;-68
2023/07/29 02:32:53;;;;;;;4.00;3.80;;;14.90;99.90;;;;;;5271348;28;20129;-67
2023/07/29 02:35:24;;;;;;;4.50;4.10;;;14.90;99.90;;;;;;5288348;28;20114;-67
2023/07/29 02:37:54;;;;;;;4.00;3.58;;;14.70;99.90;;;;;;5271714;28;20459;-67
2023/07/29 02:40:26;;;;;;;5.57;5.18;;;14.60;99.90;;;;;;5271256;28;20032;-69
2023/07/29 02:42:57;;;;;;;5.68;5.28;;;14.60;99.90;;;;;;5271118;28;20047;-67
2023/07/29 02:45:29;;;;;;;5.97;5.57;;;14.80;99.90;;;;;;5267412;28;20028;-68
2023/07/29 02:47:59;;;;;;;6.47;6.07;;;14.70;99.90;;;;;;5270523;28;20513;-67
2023/07/29 02:50:30;;;;;;;6.63;6.13;;;14.80;99.90;;;;;;5270087;28;20050;-67
2023/07/29 02:53:02;;;;;;;8.10;6.88;;;14.80;99.90;;;;;;5279168;28;20027;-67
2023/07/29 02:55:32;;;;;;;6.88;6.45;;;14.60;99.90;;;;;;5278166;28;20467;-67
2023/07/29 02:58:03;;;;;;;6.10;5.70;;;14.60;99.90;;;;;;5269450;28;20049;-67
2023/07/29 03:00:35;;;;;;;4.30;4.00;;;14.50;99.90;;;;;;5269512;28;20031;-67
2023/07/29 03:03:06;;;;;;;4.65;4.07;;;14.60;99.90;;;;;;5269388;28;20051;-68
2023/07/29 03:05:38;;;;;;;5.53;3.88;;;14.50;99.90;;;;;;5270415;28;20016;-67
2023/07/29 03:08:08;;;;;;;4.40;4.10;;;14.60;99.90;;;;;;5270915;28;20495;-67
2023/07/29 03:10:39;;;;;;;4.22;3.83;;;14.50;99.90;;;;;;5270845;28;20100;-66
2023/07/29 03:13:10;;;;;;;4.63;4.22;;;14.60;99.90;;;;;;5270856;28;20024;-67
2023/07/29 03:15:41;;;;;;;4.35;4.05;;;14.70;99.90;;;;;;5270691;28;20020;-67
2023/07/29 03:18:12;;;;;;;3.92;3.63;;;14.50;99.90;;;;;;5270949;28;20439;-67
2023/07/29 03:20:43;;;;;;;4.28;3.88;;;14.60;99.90;;;;;;5270503;28;20043;-67
2023/07/29 03:23:13;;;;;;;3.80;3.50;;;14.70;99.90;;;;;;5270513;28;20048;-67
2023/07/29 03:25:49;;;;;;;4.40;4.10;;;14.70;99.90;;;;;;5270398;28;20024;-64
2023/07/29 03:28:20;;;;;;;4.13;3.83;;;14.70;99.90;;;;;;5270250;28;20043;-65
2023/07/29 03:30:51;;;;;;;4.13;3.83;;;14.70;99.90;;;;;;5270468;28;20406;-65
2023/07/29 03:33:22;;;;;;;4.00;3.67;;;14.70;99.90;;;;;;5270352;28;20122;-65
2023/07/29 03:35:53;;;;;;;3.60;3.33;;;14.60;99.90;;;;;;5270614;28;20020;-65
2023/07/29 03:38:24;;;;;;;3.33;3.13;;;14.70;99.90;;;;;;5270056;28;20034;-67
2023/07/29 03:40:56;;;;;;;3.80;3.50;;;14.60;99.90;;;;;;5270010;28;20375;-67
2023/07/29 03:43:26;;;;;;;4.55;3.22;;;14.70;99.90;;;;;;5269089;28;20036;-67
2023/07/29 03:45:57;;;;;;;3.55;3.25;;;14.90;99.90;;;;;;5269281;28;20106;-69
2023/07/29 03:48:28;;;;;;;4.05;3.65;;;15.00;99.90;;;;;;5265455;28;20458;-68
2023/07/29 03:50:59;;;;;;;4.82;3.25;;;14.90;99.90;;;;;;5259658;28;20020;-67
2023/07/29 03:53:30;;;;;;;4.03;3.45;;;15.50;99.90;;;;;;5265266;28;20456;-68
2023/07/29 03:56:01;;;;;;;4.25;3.90;;;15.30;99.90;;;;;;5255912;28;20021;-68
2023/07/29 03:58:32;;;;;;;4.55;3.80;;;15.10;99.90;;;;;;5259155;28;20395;-66
2023/07/29 04:01:04;;;;;;;3.90;3.60;;;15.50;99.90;;;;;;5253947;28;20368;-67
2023/07/29 04:03:35;;;;;;;4.80;4.35;;;15.60;99.90;;;;;;5270164;28;20056;-68
2023/07/29 04:06:06;;;;;;;4.72;3.83;;;15.30;99.90;;;;;;5269434;28;20383;-67
2023/07/29 04:08:37;;;;;;;4.03;3.58;;;15.30;99.90;;;;;;5269590;28;20097;-67
2023/07/29 04:11:07;;;;;;;4.25;3.85;;;15.80;99.90;;;;;;5259884;28;20020;-68
2023/07/29 04:13:38;;;;;;;4.10;3.80;;;15.60;99.90;;;;;;5268271;28;20035;-67
2023/07/29 04:16:09;;;;;;;4.40;4.00;;;15.40;99.90;;;;;;5268216;28;20035;-68
2023/07/29 04:18:40;;;;;;;4.25;3.92;;;15.80;99.90;;;;;;5269544;28;20043;-67
2023/07/29 04:21:11;;;;;;;4.68;4.38;;;15.90;99.90;;;;;;5269546;28;20078;-67
2023/07/29 04:23:41;;;;;;;4.72;4.35;;;15.70;99.90;;;;;;5269331;28;20541;-68
2023/07/29 04:26:12;;;;;;;4.13;3.92;;;16.00;99.90;;;;;;5269587;28;20024;-67
2023/07/29 04:28:49;;;;;;;4.10;3.90;;;16.00;99.90;;;;;;5268965;28;20094;-68
2023/07/29 04:31:20;;;;;;;4.38;3.97;;;16.00;99.90;;;;;;5269210;28;20027;-68
2023/07/29 04:33:51;;;;;;;3.85;3.65;;;16.20;99.90;;;;;;5272973;28;20016;-67
2023/07/29 04:36:22;;;;;;;4.38;3.83;;;16.60;99.90;;;;;;5271387;28;20082;-68
2023/07/29 04:38:53;;;;;;;3.60;3.30;;;16.40;99.90;;;;;;5268363;28;20054;-67
2023/07/29 04:41:24;;;;;;;4.13;3.72;;;16.80;99.90;;;;;;5268742;28;20020;-67
2023/07/29 04:43:55;;;;;;;3.80;3.47;;;16.60;99.90;;;;;;5267485;28;20040;-67
2023/07/29 04:46:26;;;;;;;3.85;3.55;;;16.60;99.90;;;;;;5266883;28;20016;-68
2023/07/29 04:48:56;;;;;;;4.15;3.45;;;16.80;99.90;;;;;;5267682;28;20592;-67
2023/07/29 04:51:27;;;;;;;3.72;3.42;;;16.90;99.90;;;;;;5266640;28;20657;-68
2023/07/29 04:53:58;;;;;;;4.05;3.75;;;16.90;99.90;;;;;;5268023;28;20020;-68
2023/07/29 04:56:29;;;;;;;3.88;3.55;;;17.30;99.90;;;;;;5268128;28;20032;-68
2023/07/29 04:59:00;;;;;;;3.20;3.00;;;17.50;99.90;;;;;;5269056;28;20027;-67
2023/07/29 05:01:31;;;;;;;3.38;3.08;;;17.60;99.90;;;;;;5267122;28;20035;-67
2023/07/29 05:04:02;;;;;;;3.47;3.10;;;17.70;99.90;;;;;;5273577;28;20035;-67
2023/07/29 05:06:33;;;;;;;4.15;3.33;;;17.90;99.90;;;;;;5273124;28;20116;-67
2023/07/29 05:09:14;;;;;;;3.53;3.28;;;17.90;99.90;;;;;;5268467;28;20028;-68
2023/07/29 05:11:45;;;;;;;4.28;3.58;;;18.20;99.90;;;;;;5268340;28;20471;-68
2023/07/29 05:14:17;;;;;;;4.70;4.30;;;18.30;99.90;;;;;;5268177;28;20413;-68
2023/07/29 05:16:49;;;;;;;3.50;3.30;;;18.50;99.90;;;;;;5268419;28;20035;-68
2023/07/29 05:19:20;;;;;;;4.10;3.67;;;18.50;99.90;;;;;;5268213;28;20097;-68
2023/07/29 05:21:51;;;;;;;4.85;3.75;;;18.70;99.90;;;;;;5268153;28;20106;-67
2023/07/29 05:24:23;;;;;;;3.72;3.53;;;18.90;99.90;;;;;;5266886;28;20028;-69
2023/07/29 05:26:54;;;;;;;4.63;4.25;;;19.00;99.90;;;;;;5266855;28;20505;-67
2023/07/29 05:29:24;;;;;;;4.85;4.55;;;19.30;99.90;;;;;;5268147;28;20032;-68
2023/07/29 05:31:56;;;;;;;6.28;5.93;;;19.60;99.90;;;;;;5268347;28;20028;-68
2023/07/29 05:34:27;;;;;;;7.35;6.90;;;19.60;99.90;;;;;;5267096;28;20020;-67
2023/07/29 05:36:58;;;;;;;7.40;7.00;;;19.80;99.90;;;;;;5267633;28;20374;-68
2023/07/29 05:39:32;;;;;;;8.75;8.07;;;19.80;99.90;;;;;;5266688;28;20032;-68
2023/07/29 05:42:03;;;;;;;8.55;7.80;;;20.00;99.90;;;;;;5266845;28;20016;-68
2023/07/29 05:44:34;;;;;;;8.15;7.65;;;20.10;99.90;;;;;;5266544;28;20419;-68
2023/07/29 05:47:05;;;;;;;7.05;6.55;;;20.60;99.90;;;;;;5266713;28;20127;-67
2023/07/29 05:49:36;;;;;;;8.55;7.90;;;20.70;99.90;;;;;;5266272;28;20043;-68
2023/07/29 05:52:07;;;;;;;7.05;6.63;;;21.00;99.90;;;;;;5266547;28;20016;-67
2023/07/29 05:54:38;;;;;;;6.60;6.10;;;21.20;99.90;;;;;;5258109;28;20030;-68
2023/07/29 05:57:12;;;;;;;5.72;5.38;;;21.40;99.90;;;;;;5267579;28;20402;-66
2023/07/29 05:59:43;;;;;;;5.53;5.07;;;21.50;99.90;;;;;;5266253;28;20040;-65
2023/07/29 06:02:14;;;;;;;4.43;4.10;;;21.90;99.90;;;;;;5260946;28;20390;-65
2023/07/29 06:04:45;;;;;;;5.95;4.05;;;21.90;99.90;;;;;;5260742;28;20035;-66
2023/07/29 06:07:16;;;;;;;3.97;3.67;;;22.20;99.90;;;;;;5258616;28;20021;-65
2023/07/29 06:09:46;;;;;;;5.53;4.53;;;22.40;99.90;;;;;;5258639;28;20030;-66
2023/07/29 06:12:17;;;;;;;4.72;4.10;;;22.70;99.90;;;;;;5266142;28;20024;-65
2023/07/29 06:14:48;;;;;;;5.35;4.95;;;22.80;99.90;;;;;;5267661;28;20031;-65
2023/07/29 06:17:19;;;;;;;4.75;4.38;;;22.90;99.90;;;;;;5267543;28;20043;-65
2023/07/29 06:19:50;;;;;;;4.50;4.20;;;23.20;99.90;;;;;;5267471;28;20035;-66
2023/07/29 06:22:21;;;;;;;4.18;3.88;;;23.20;99.90;;;;;;5267300;28;20032;-66
2023/07/29 06:24:51;;;;;;;4.43;3.65;;;23.40;99.90;;;;;;5267567;28;20107;-66
2023/07/29 06:27:22;;;;;;;4.00;3.53;;;23.40;99.90;;;;;;5264112;28;20020;-66
2023/07/29 06:29:53;;;;;;;3.92;3.38;;;23.60;99.90;;;;;;5250962;28;20032;-67
2023/07/29 06:32:24;;;;;;;4.38;2.97;;;23.70;99.90;;;;;;5260688;28;20058;-66
2023/07/29 06:34:55;;;;;;;4.47;3.70;;;23.90;99.90;;;;;;5270660;28;20447;-66
2023/07/29 06:37:26;;;;;;;4.90;4.47;;;23.90;99.90;;;;;;5262886;28;20116;-66
2023/07/29 06:39:56;;;;;;;6.05;5.65;;;23.90;99.90;;;;;;5253531;28;20487;-66
2023/07/29 06:42:27;;;;;;;6.30;5.68;;;24.10;99.90;;;;;;5265706;28;20480;-66
2023/07/29 06:44:58;;;;;;;6.70;6.20;;;24.10;99.90;;;;;;5265905;28;20047;-66
2023/07/29 06:47:29;;;;;;;8.00;7.30;;;24.30;99.90;;;;;;5265819;28;20028;-67
2023/07/29 06:50:00;;;;;;;5.88;5.47;;;24.30;99.90;;;;;;5266932;28;20035;-66
2023/07/29 06:52:31;;;;;;;6.90;6.50;;;24.60;99.90;;;;;;5267181;28;20024;-66
2023/07/29 06:55:02;;;;;;;6.40;5.80;;;24.70;99.90;;;;;;5259006;28;20102;-66
2023/07/29 06:57:33;;;;;;;5.03;4.72;;;24.60;99.90;;;;;;5267130;28;20024;-66
2023/07/29 07:00:04;;;;;;;5.60;5.13;;;24.70;99.90;;;;;;5267372;28;20036;-67
2023/07/29 07:02:35;;;;;;;4.82;4.43;;;24.90;99.90;;;;;;5266680;28;20062;-67
2023/07/29 07:05:06;;;;;;;4.85;4.43;;;24.80;99.90;;;;;;5266455;28;20093;-66
2023/07/29 07:07:37;;;;;;;3.83;3.60;;;25.10;99.90;;;;;;5267032;28;20028;-66
2023/07/29 07:10:08;;;;;;;3.83;3.42;;;25.30;99.90;;;;;;5268559;28;20020;-66
2023/07/29 07:12:39;;;;;;;4.25;3.90;;;25.30;99.90;;;;;;5270990;28;20020;-66
2023/07/29 07:15:10;;;;;;;9.35;4.50;;;25.40;99.90;;;;;;5270877;28;20374;-66
2023/07/29 07:17:41;;;;;;;3.88;3.58;;;25.40;99.90;;;;;;5263688;28;20437;-66
2023/07/29 07:20:12;;;;;;;4.38;4.10;;;25.50;99.90;;;;;;5269705;28;20032;-67
2023/07/29 07:22:43;;;;;;;5.90;5.57;;;25.40;99.90;;;;;;5270577;28;20363;-66
2023/07/29 07:25:14;;;;;;;5.72;5.18;;;25.60;99.90;;;;;;5270503;28;20031;-66
2023/07/29 07:27:45;;;;;;;5.15;4.78;;;25.50;99.90;;;;;;5269730;28;20074;-66
2023/07/29 07:30:16;;;;;;;6.20;4.50;;;25.70;99.90;;;;;;5269749;28;20020;-66
2023/07/29 07:32:47;;;;;;;4.88;4.00;;;25.70;99.90;;;;;;5269076;28;20040;-66
2023/07/29 07:35:18;;;;;;;4.93;4.60;;;25.90;99.90;;;;;;5267654;28;20028;-67
2023/07/29 07:37:49;;;;;;;4.43;4.13;;;26.00;99.90;;;;;;5268974;28;20020;-67
2023/07/29 07:40:20;;;;;;;3.90;3.58;;;25.90;99.90;;;;;;5268920;28;20382;-66
2023/07/29 07:42:51;;;;;;;4.28;3.50;;;26.10;99.90;;;;;;5268948;28;20395;-67
2023/07/29 07:45:22;;;;;;;4.90;3.35;;;26.20;99.90;;;;;;5269411;28;20107;-66
2023/07/29 07:47:55;;;;;;;5.25;3.75;;;26.30;99.90;;;;;;5269936;28;20045;-67
2023/07/29 07:50:30;;;;;;;4.97;3.85;;;26.40;99.90;;;;;;5269954;28;20072;-67
2023/07/29 07:53:01;;;;;;;3.20;3.00;;;26.40;99.90;;;;;;5270006;28;20526;-66
2023/07/29 07:55:32;;;;;;;3.70;3.40;;;26.50;99.90;;;;;;5264722;28;20096;-67
2023/07/29 07:58:06;;;;;;;3.25;2.95;;;26.60;99.90;;;;;;5262205;28;20082;-67
2023/07/29 08:00:36;;;;;;;3.60;3.30;;;26.60;99.90;;;;;;5270027;28;20459;-66
2023/07/29 08:03:07;;;;;;;3.65;3.17;;;26.60;99.90;;;;;;5269501;28;20102;-66
2023/07/29 08:05:38;;;;;;;5.18;3.70;;;26.40;99.90;;;;;;5277409;28;20034;-66
2023/07/29 08:08:09;;;;;;;5.15;3.00;;;26.70;99.90;;;;;;5269939;28;20024;-66
2023/07/29 08:10:40;;;;;;;3.63;2.80;;;26.80;99.90;;;;;;5269967;28;20546;-66
2023/07/29 08:13:11;;;;;;;6.00;3.17;;;26.60;99.90;;;;;;5270038;28;20020;-66
2023/07/29 08:15:45;;;;;;;4.47;2.80;;;26.90;99.90;;;;;;5269822;28;20068;-66
2023/07/29 08:18:16;;;;;;;2.70;2.50;;;26.60;99.90;;;;;;5269326;28;20020;-66
2023/07/29 08:20:58;;;;;;;9.43;3.30;;;26.90;99.90;;;;;;5269522;28;20107;-66
2023/07/29 08:23:30;;;;;;;2.75;2.47;;;26.80;99.90;;;;;;5268530;28;20028;-66
2023/07/29 08:26:04;;;;;;;4.03;3.10;;;26.30;99.90;;;;;;5268905;28;20036;-67
2023/07/29 08:28:38;;;;;;;3.42;3.20;;;26.80;99.90;;;;;;5257680;28;20832;-67
2023/07/29 08:31:09;;;;;;;3.45;3.25;;;27.00;99.90;;;;;;5259142;28;20028;-68
2023/07/29 08:33:40;;;;;;;5.25;3.38;;;27.00;99.90;;;;;;5260317;28;20040;-67
2023/07/29 08:36:10;;;;;;;3.85;3.55;;;27.00;99.90;;;;;;5268542;28;20598;-66
2023/07/29 08:38:41;;;;;;;4.35;3.88;;;27.10;99.90;;;;;;5262509;28;20027;-67
2023/07/29 08:41:25;;;;;;;3.60;3.30;;;27.30;99.90;;;;;;5268099;28;20032;-67
2023/07/29 08:44:09;;;;;;;3.97;3.45;;;27.40;99.90;;;;;;5269104;28;20035;-67
2023/07/29 08:46:40;;;;;;;3.80;3.47;;;27.50;99.90;;;;;;5248159;28;20081;-67
2023/07/29 08:49:18;;;;;;;7.35;3.03;;;27.50;99.90;;;;;;5268681;28;20530;-66
2023/07/29 08:51:51;;;;;;;3.97;3.58;;;27.00;99.90;;;;;;5268949;28;20020;-66
2023/07/29 08:54:22;;;;;;;3.67;3.35;;;27.40;99.90;;;;;;5268895;28;20028;-67
2023/07/29 08:56:53;;;;;;;5.00;4.07;;;27.60;99.90;;;;;;5268794;28;20039;-67
2023/07/29 08:59:25;;;;;;;4.35;3.97;;;27.60;99.90;;;;;;5278260;28;20051;-67
2023/07/29 09:01:57;;;;;;;6.95;4.30;;;27.70;99.90;;;;;;5268612;28;20040;-67
2023/07/29 09:04:28;;;;;;;3.65;3.28;;;28.00;99.90;;;;;;5268593;28;20031;-67
2023/07/29 09:07:00;;;;;;;3.90;3.60;;;27.90;99.90;;;;;;5253989;28;20855;-67
2023/07/29 09:09:31;;;;;;;3.83;3.53;;;27.40;99.90;;;;;;5268128;28;20101;-67
2023/07/29 09:12:02;;;;;;;4.43;3.03;;;27.40;99.90;;;;;;5268469;28;20478;-67
2023/07/29 09:14:33;;;;;;;4.45;4.05;;;27.80;99.90;;;;;;5268619;28;20028;-67
2023/07/29 09:17:08;;;;;;;4.78;4.47;;;27.40;99.90;;;;;;5267020;28;20466;-67
2023/07/29 09:19:39;;;;;;;4.95;4.65;;;27.70;99.90;;;;;;5267413;28;20078;-67
2023/07/29 09:22:20;;;;;;;5.82;4.53;;;27.80;99.90;;;;;;5267736;28;20062;-68
2023/07/29 09:24:52;;;;;;;3.85;3.00;;;28.10;99.90;;;;;;5261594;28;20016;-67
2023/07/29 09:27:27;;;;;;;3.72;3.42;;;28.10;99.90;;;;;;5254922;28;20024;-67
2023/07/29 09:29:58;;;;;;;4.35;4.05;;;27.80;99.90;;;;;;5267089;28;20012;-67
2023/07/29 09:32:28;;;;;;;3.75;3.45;;;28.00;99.90;;;;;;5258365;28;20502;-67
2023/07/29 09:34:59;;;;;;;3.30;3.00;;;28.20;99.90;;;;;;5256196;28;20051;-68
2023/07/29 09:37:31;;;;;;;4.35;3.95;;;28.30;99.90;;;;;;5250426;28;20460;-67
2023/07/29 09:40:02;;;;;;;4.10;3.33;;;27.90;99.90;;;;;;5255171;28;20468;-67
2023/07/29 09:42:33;;;;;;;4.18;3.88;;;28.30;99.90;;;;;;5252798;28;20058;-68
2023/07/29 09:45:04;;;;;;;4.35;4.03;;;28.50;99.90;;;;;;5261334;28;20123;-68
2023/07/29 09:47:35;;;;;;;4.00;3.65;;;28.30;99.90;;;;;;5264689;28;20020;-68
2023/07/29 09:50:09;;;;;;;4.55;2.70;;;28.60;99.90;;;;;;5267653;28;20020;-67
2023/07/29 09:52:41;;;;;;;3.00;2.80;;;28.70;99.90;;;;;;5267849;28;20028;-67
2023/07/29 09:55:15;;;;;;;2.58;2.38;;;28.80;99.90;;;;;;5267585;28;20095;-68
2023/07/29 09:57:46;;;;;;;2.95;2.75;;;28.90;99.90;;;;;;5267811;28;20020;-66
2023/07/29 10:00:18;;;;;;;3.63;3.33;;;28.80;99.90;;;;;;5259250;28;20031;-66
2023/07/29 10:02:50;;;;;;;4.25;3.95;;;28.70;99.90;;;;;;5250703;28;20078;-66
2023/07/29 10:05:23;;;;;;;3.63;3.33;;;28.40;99.90;;;;;;5252959;28;20028;-66
2023/07/29 10:07:55;;;;;;;4.60;4.30;;;28.50;99.90;;;;;;5251821;28;20124;-66
2023/07/29 10:10:28;;;;;;;4.82;4.53;;;28.60;99.90;;;;;;5251761;28;20035;-66
2023/07/29 10:12:59;;;;;;;4.18;3.78;;;29.00;99.90;;;;;;5251808;28;20031;-67
2023/07/29 10:15:32;;;;;;;4.18;3.88;;;29.10;99.90;;;;;;5252284;28;20457;-66
2023/07/29 10:18:03;;;;;;;3.88;3.67;;;28.60;99.90;;;;;;5251320;28;20021;-66
2023/07/29 10:20:35;;;;;;;4.13;3.53;;;28.80;99.90;;;;;;5251110;28;20040;-66
2023/07/29 10:23:09;;;;;;;3.50;3.30;;;28.20;99.90;;;;;;5249871;28;20498;-66
2023/07/29 10:25:46;;;;;;;4.10;3.80;;;28.70;99.90;;;;;;5250683;28;20028;-66
2023/07/29 10:28:24;;;;;;;3.88;3.58;;;28.90;99.90;;;;;;5251117;28;20356;-66
2023/07/29 10:30:57;;;;;;;4.65;3.60;;;28.70;99.90;;;;;;5251517;28;20442;-66
2023/07/29 10:33:28;;;;;;;4.13;3.83;;;28.70;99.90;;;;;;5247979;28;20482;-66
2023/07/29 10:35:59;;;;;;;4.70;3.33;;;29.00;99.90;;;;;;5250596;28;20029;-66
2023/07/29 10:38:30;;;;;;;3.28;2.50;;;29.00;99.90;;;;;;5252151;28;20012;-66
2023/07/29 10:41:01;;;;;;;2.97;2.70;;;29.30;99.90;;;;;;5250912;28;20024;-66
2023/07/29 10:43:37;;;;;;;4.30;2.97;;;29.30;99.90;;;;;;5250907;28;20472;-66
2023/07/29 10:46:22;;;;;;;8.75;2.97;;;29.40;99.90;;;;;;5254892;28;20036;-66
2023/07/29 10:48:56;;;;;;;3.35;3.05;;;29.40;99.90;;;;;;5254382;28;20032;-66
2023/07/29 10:51:34;;;;;;;4.43;2.95;;;29.10;99.90;;;;;;5254308;28;20020;-66
2023/07/29 10:54:14;;;;;;;3.50;3.30;;;29.40;99.90;;;;;;5256577;28;20067;-66
2023/07/29 10:56:50;;;;;;;4.22;3.25;;;29.60;99.90;;;;;;5255468;28;20025;-66
2023/07/29 10:59:20;;;;;;;5.97;3.35;;;29.40;99.90;;;;;;5253257;28;20115;-66
2023/07/29 11:01:59;;;;;;;3.83;3.40;;;29.50;99.90;;;;;;5254114;28;20101;-66
2023/07/29 11:04:30;;;;;;;3.50;2.78;;;29.50;99.90;;;;;;5255919;28;20040;-65
2023/07/29 11:07:28;;;;;;;4.15;2.88;;;29.70;99.90;;;;;;5254759;28;20055;-66
2023/07/29 11:10:02;;;;;;;3.22;2.92;;;29.30;99.90;;;;;;5255388;28;20027;-66
2023/07/29 11:13:00;;;;;;;4.20;3.15;;;29.60;99.90;;;;;;5251970;28;20020;-66
2023/07/29 11:15:31;;;;;;;3.83;2.95;;;29.40;99.90;;;;;;5257892;28;20050;-66
2023/07/29 11:18:02;;;;;;;5.35;2.50;;;29.50;99.90;;;;;;5250090;28;20021;-66
2023/07/29 11:20:34;;;;;;;2.88;2.67;;;29.80;99.90;;;;;;5254126;28;20037;-66
2023/07/29 11:23:05;;;;;;;3.80;2.90;;;29.80;99.90;;;;;;5253044;28;20033;-67
2023/07/29 11:25:46;;;;;;;3.13;2.92;;;29.90;99.90;;;;;;5251541;28;20023;-66
2023/07/29 11:28:19;;;;;;;4.55;2.70;;;29.00;98.10;;;;;;5256401;28;20150;-66
2023/07/29 11:31:05;;;;;;;5.13;3.40;;;29.40;99.90;;;;;;5260092;28;20042;-66
2023/07/29 11:33:39;;;;;;;4.43;2.80;;;29.80;99.90;;;;;;5261567;28;20028;-66
2023/07/29 11:36:19;;;;;;;3.08;2.65;;;28.50;99.90;;;;;;5258440;28;20434;-66
2023/07/29 11:38:52;;;;;;;2.92;2.70;;;29.00;99.90;;;;;;5259321;28;20028;-66
2023/07/29 11:41:23;;;;;;;2.70;2.53;;;28.40;99.90;;;;;;5262511;28;20034;-66
2023/07/29 11:43:54;;;;;;;2.75;2.55;;;28.90;99.90;;;;;;5259160;28;20035;-66
2023/07/29 11:46:25;;;;;;;3.40;2.97;;;29.40;99.90;;;;;;5258945;28;20042;-66
2023/07/29 11:48:56;;;;;;;3.20;2.92;;;29.40;99.90;;;;;;5260947;28;20016;-66
2023/07/29 11:51:29;;;;;;;3.85;2.92;;;29.60;99.90;;;;;;5261045;28;20058;-67
2023/07/29 11:54:01;;;;;;;4.50;2.95;;;29.90;99.90;;;;;;5259615;28;20027;-66
2023/07/29 11:56:32;;;;;;;3.75;2.88;;;30.00;99.90;;;;;;5259903;28;20368;-67
2023/07/29 11:59:03;;;;;;;3.58;3.38;;;30.00;99.90;;;;;;5262835;28;20046;-66
2023/07/29 12:01:38;;;;;;;3.58;3.28;;;29.90;97.20;;;;;;5257667;28;20036;-66
2023/07/29 12:04:10;;;;;;;6.32;3.80;;;29.10;98.50;;;;;;5262894;28;20182;-66
2023/07/29 12:06:42;;;;;;;4.50;3.65;;;29.80;99.90;;;;;;5258300;28;20028;-67
2023/07/29 12:09:13;;;;;;;6.30;3.47;;;29.80;99.90;;;;;;5258855;28;20109;-66
2023/07/29 12:11:44;;;;;;;5.00;3.28;;;30.20;99.90;;;;;;5258514;28;20024;-67
2023/07/29 12:14:17;;;;;;;3.75;3.20;;;29.80;99.90;;;;;;5257468;28;20032;-67
2023/07/29 12:16:49;;;;;;;3.75;3.45;;;30.00;99.90;;;;;;5258985;28;20541;-66
2023/07/29 12:19:21;;;;;;;3.33;3.13;;;30.10;99.90;;;;;;5254459;28;20730;-66
2023/07/29 12:21:53;;;;;;;2.97;2.78;;;30.10;97.70;;;;;;5256066;28;20020;-66
2023/07/29 12:24:23;;;;;;;3.88;3.15;;;30.00;99.10;;;;;;5257100;28;20032;-66
2023/07/29 12:26:54;;;;;;;3.10;2.38;;;29.90;97.80;;;;;;5257253;28;20024;-66
2023/07/29 12:29:26;;;;;;;3.22;2.95;;;29.40;99.90;;;;;;5254102;28;20029;-66
2023/07/29 12:32:01;;;;;;;2.80;2.50;;;29.80;97.40;;;;;;5258405;28;20422;-66
2023/07/29 12:34:32;;;;;;;2.83;2.42;;;29.90;96.00;;;;;;5257809;28;20028;-66
2023/07/29 12:37:04;;;;;;;2.53;2.33;;;30.10;97.70;;;;;;5256747;28;20124;-66
2023/07/29 12:39:41;;;;;;;4.90;3.10;;;30.00;97.90;;;;;;5260559;28;20016;-66
2023/07/29 12:42:13;;;;;;;3.08;2.45;;;29.70;97.00;;;;;;5254889;28;20424;-66
2023/07/29 12:44:49;;;;;;;5.15;2.80;;;30.10;91.90;;;;;;5259684;28;20660;-66
2023/07/29 12:47:20;;;;;;;2.72;2.47;;;30.10;96.10;;;;;;5258770;28;20057;-66
2023/07/29 12:49:51;;;;;;;3.92;2.67;;;29.30;93.30;;;;;;5260417;28;20153;-66
2023/07/29 12:52:22;;;;;;;2.80;2.60;;;29.60;94.80;;;;;;5259655;28;20538;-66
2023/07/29 12:54:53;;;;;;;4.45;2.97;;;30.20;95.30;;;;;;5255568;28;20143;-66
2023/07/29 12:57:24;;;;;;;3.40;2.30;;;30.00;92.50;;;;;;5251877;28;20032;-66
2023/07/29 12:59:55;;;;;;;2.28;2.10;;;29.50;92.50;;;;;;5254299;28;20020;-66
2023/07/29 13:02:26;;;;;;;2.95;2.30;;;29.50;99.30;;;;;;5255042;28;20048;-66
2023/07/29 13:04:56;;;;;;;2.70;2.50;;;29.80;97.60;;;;;;5254347;28;20027;-66
2023/07/29 13:07:27;;;;;;;2.70;2.20;;;29.90;95.90;;;;;;5251887;28;20047;-66
2023/07/29 13:09:58;;;;;;;2.35;2.15;;;30.00;97.50;;;;;;5252103;28;20028;-66
2023/07/29 13:12:29;;;;;;;2.20;2.10;;;29.90;96.10;;;;;;5253977;28;20048;-66